Time;durP1;ratioP1;P1;durP2;ratioP2;P2;SDS_P1;SDS_P2;PMS_P1;PMS_P2;Temp;Humidity;BMP_temperature;BMP_pressure;BME280_temperature;BME280_humidity;BME280_pressure;Samples;Min_cycle;Max_cycle;Signal;HPM_P1;HPM_P2
2021/09/18 00:01:36;;;;;;;10.27;5.93;;;;;;;;;;5026160;28;20052;-63
2021/09/18 00:04:01;;;;;;;10.20;6.30;;;;;;;;;;5026469;28;20029;-64
2021/09/18 00:06:27;;;;;;;10.57;6.30;;;;;;;;;;5022085;28;20085;-62
2021/09/18 00:08:52;;;;;;;8.45;5.65;;;;;;;;;;5027613;28;20625;-63
2021/09/18 00:11:17;;;;;;;10.55;6.20;;;;;;;;;;5017808;28;20053;-63
2021/09/18 00:13:42;;;;;;;9.32;5.85;;;;;;;;;;5025136;28;20056;-64
2021/09/18 00:16:07;;;;;;;8.40;5.80;;;;;;;;;;5024258;28;20070;-63
2021/09/18 00:18:33;;;;;;;9.38;5.75;;;;;;;;;;5021795;28;20500;-62
2021/09/18 00:20:58;;;;;;;9.32;6.05;;;;;;;;;;5020428;28;20037;-62
2021/09/18 00:23:24;;;;;;;11.65;6.35;;;;;;;;;;5028221;28;20028;-62
2021/09/18 00:25:49;;;;;;;9.85;5.93;;;;;;;;;;5018916;28;20463;-63
2021/09/18 00:28:14;;;;;;;9.98;5.80;;;;;;;;;;5019265;28;20026;-63
2021/09/18 00:30:39;;;;;;;13.02;6.20;;;;;;;;;;5023843;28;20584;-63
2021/09/18 00:33:05;;;;;;;10.02;5.82;;;;;;;;;;5018780;28;20075;-63
2021/09/18 00:35:30;;;;;;;9.23;5.93;;;;;;;;;;5021525;28;20493;-62
2021/09/18 00:37:55;;;;;;;9.45;5.72;;;;;;;;;;5022928;28;20033;-62
2021/09/18 00:40:20;;;;;;;9.88;5.80;;;;;;;;;;5023297;28;20504;-63
2021/09/18 00:42:46;;;;;;;9.00;5.38;;;;;;;;;;5027094;28;20049;-62
2021/09/18 00:45:11;;;;;;;8.77;5.75;;;;;;;;;;5022585;28;20025;-63
2021/09/18 00:47:37;;;;;;;8.18;5.78;;;;;;;;;;5026624;28;20481;-62
2021/09/18 00:50:02;;;;;;;11.50;6.15;;;;;;;;;;5026464;28;20079;-63
2021/09/18 00:52:28;;;;;;;9.88;5.68;;;;;;;;;;5019971;28;20084;-63
2021/09/18 00:54:53;;;;;;;11.43;6.15;;;;;;;;;;5027485;28;20150;-63
2021/09/18 00:57:18;;;;;;;9.35;5.78;;;;;;;;;;5025516;28;20025;-63
2021/09/18 00:59:44;;;;;;;8.88;5.78;;;;;;;;;;5019022;28;20082;-63
2021/09/18 01:02:09;;;;;;;9.60;5.90;;;;;;;;;;5024894;28;20041;-63
2021/09/18 01:04:36;;;;;;;12.43;5.78;;;;;;;;;;5023804;28;20388;-63
2021/09/18 01:07:01;;;;;;;11.85;5.63;;;;;;;;;;5024987;28;20014;-63
2021/09/18 01:09:27;;;;;;;8.27;5.03;;;;;;;;;;5018443;28;20492;-64
2021/09/18 01:11:52;;;;;;;7.03;4.60;;;;;;;;;;5026483;28;20523;-63
2021/09/18 01:14:17;;;;;;;8.52;5.25;;;;;;;;;;5021461;28;20065;-64
2021/09/18 01:16:42;;;;;;;6.80;4.88;;;;;;;;;;5022799;28;20420;-64
2021/09/18 01:19:07;;;;;;;9.40;5.53;;;;;;;;;;5024068;28;20292;-63
2021/09/18 01:21:33;;;;;;;10.13;6.05;;;;;;;;;;5025226;28;20091;-63
2021/09/18 01:23:58;;;;;;;9.90;5.88;;;;;;;;;;5023833;28;20034;-63
2021/09/18 01:26:33;;;;;;;9.25;5.75;;;;;;;;;;5020549;28;20029;-63
2021/09/18 01:28:59;;;;;;;9.43;5.65;;;;;;;;;;5023342;28;20369;-63
2021/09/18 01:31:25;;;;;;;8.10;5.28;;;;;;;;;;5027301;28;20028;-63
2021/09/18 01:33:50;;;;;;;8.68;5.50;;;;;;;;;;5022233;28;20029;-64
2021/09/18 01:36:15;;;;;;;8.43;5.53;;;;;;;;;;5024470;28;20136;-63
2021/09/18 01:38:40;;;;;;;10.90;5.75;;;;;;;;;;5023790;28;20014;-64
2021/09/18 01:41:05;;;;;;;9.55;5.88;;;;;;;;;;5025232;28;20071;-64
2021/09/18 01:43:31;;;;;;;9.05;5.43;;;;;;;;;;5026817;28;20026;-64
2021/09/18 01:45:56;;;;;;;10.30;5.53;;;;;;;;;;5023434;28;20487;-63
2021/09/18 01:48:21;;;;;;;9.23;5.50;;;;;;;;;;5027082;28;20017;-62
2021/09/18 01:50:48;;;;;;;8.05;5.47;;;;;;;;;;5021012;28;20034;-62
2021/09/18 01:53:18;;;;;;;9.90;5.75;;;;;;;;;;5029281;28;20150;-63
2021/09/18 01:55:44;;;;;;;9.57;5.95;;;;;;;;;;5029155;28;20041;-64
2021/09/18 01:58:09;;;;;;;8.45;5.40;;;;;;;;;;5021979;28;20029;-64
2021/09/18 02:00:45;;;;;;;9.00;5.32;;;;;;;;;;5020008;28;20033;-63
2021/09/18 02:03:10;;;;;;;7.47;5.18;;;;;;;;;;5024671;28;20048;-63
2021/09/18 02:05:36;;;;;;;7.82;5.63;;;;;;;;;;5019083;28;20057;-63
2021/09/18 02:08:02;;;;;;;9.65;5.30;;;;;;;;;;5023791;28;20139;-63
2021/09/18 02:10:28;;;;;;;10.23;5.93;;;;;;;;;;5022366;28;20030;-63
2021/09/18 02:12:53;;;;;;;10.40;5.60;;;;;;;;;;5027611;28;20021;-63
2021/09/18 02:15:19;;;;;;;11.05;6.03;;;;;;;;;;5023658;28;20247;-63
2021/09/18 02:17:44;;;;;;;9.02;6.07;;;;;;;;;;5023422;28;20018;-63
2021/09/18 02:20:14;;;;;;;7.43;4.97;;;;;;;;;;5026673;28;20431;-62
2021/09/18 02:22:40;;;;;;;8.68;5.35;;;;;;;;;;5019665;28;20480;-64
2021/09/18 02:25:06;;;;;;;8.77;5.47;;;;;;;;;;5030004;28;20144;-64
2021/09/18 02:27:31;;;;;;;7.32;4.82;;;;;;;;;;5021855;28;20502;-63
2021/09/18 02:29:56;;;;;;;11.98;5.45;;;;;;;;;;5019936;28;20038;-63
2021/09/18 02:32:22;;;;;;;11.85;6.13;;;;;;;;;;5019664;28;20022;-63
2021/09/18 02:34:47;;;;;;;8.88;5.60;;;;;;;;;;5025726;28;20475;-63
2021/09/18 02:37:12;;;;;;;9.50;5.90;;;;;;;;;;5023358;28;20029;-62
2021/09/18 02:39:38;;;;;;;11.88;5.22;;;;;;;;;;5025727;28;20022;-63
2021/09/18 02:42:03;;;;;;;9.32;5.40;;;;;;;;;;5025590;28;20064;-63
2021/09/18 02:44:28;;;;;;;7.78;4.93;;;;;;;;;;5028890;28;20025;-64
2021/09/18 02:46:53;;;;;;;8.30;4.90;;;;;;;;;;5024845;28;20201;-63
2021/09/18 02:49:18;;;;;;;9.50;5.28;;;;;;;;;;5022676;28;20025;-62
2021/09/18 02:51:43;;;;;;;10.30;5.30;;;;;;;;;;5023961;28;20025;-63
2021/09/18 02:54:09;;;;;;;9.68;5.20;;;;;;;;;;5027326;28;20033;-63
2021/09/18 02:56:34;;;;;;;7.55;4.97;;;;;;;;;;5020909;28;20021;-63
2021/09/18 02:58:59;;;;;;;8.50;4.72;;;;;;;;;;5023064;28;20120;-64
2021/09/18 03:01:24;;;;;;;7.68;5.00;;;;;;;;;;5024933;28;20431;-63
2021/09/18 03:03:49;;;;;;;6.97;4.10;;;;;;;;;;5028036;28;20024;-63
2021/09/18 03:06:15;;;;;;;7.72;5.07;;;;;;;;;;5016035;28;20026;-65
2021/09/18 03:08:40;;;;;;;8.32;5.07;;;;;;;;;;5025935;28;20113;-63
2021/09/18 03:11:05;;;;;;;7.32;4.80;;;;;;;;;;5023243;28;20021;-63
2021/09/18 03:13:31;;;;;;;6.57;4.82;;;;;;;;;;5018513;28;20017;-63
2021/09/18 03:15:56;;;;;;;8.43;5.43;;;;;;;;;;5025444;28;20450;-63
2021/09/18 03:18:21;;;;;;;8.50;4.45;;;;;;;;;;5022554;28;20124;-63
2021/09/18 03:20:46;;;;;;;8.05;4.68;;;;;;;;;;5022178;28;20518;-63
2021/09/18 03:23:13;;;;;;;9.60;5.20;;;;;;;;;;5024203;28;20024;-64
2021/09/18 03:25:40;;;;;;;8.05;4.80;;;;;;;;;;5021349;28;20058;-64
2021/09/18 03:28:05;;;;;;;7.38;4.70;;;;;;;;;;5022801;28;20486;-63
2021/09/18 03:30:30;;;;;;;7.88;4.63;;;;;;;;;;5020732;28;20041;-63
2021/09/18 03:32:55;;;;;;;7.78;4.57;;;;;;;;;;5028897;28;20041;-63
2021/09/18 03:35:20;;;;;;;9.57;4.78;;;;;;;;;;5024941;28;20048;-63
2021/09/18 03:37:45;;;;;;;8.07;4.85;;;;;;;;;;5037937;28;20032;-63
2021/09/18 03:40:11;;;;;;;7.72;4.75;;;;;;;;;;5024527;28;20534;-63
2021/09/18 03:42:36;;;;;;;7.72;4.70;;;;;;;;;;5021953;28;20049;-63
2021/09/18 03:45:02;;;;;;;7.20;4.20;;;;;;;;;;5027947;28;20102;-62
2021/09/18 03:47:27;;;;;;;6.72;4.75;;;;;;;;;;5025356;28;20057;-62
2021/09/18 03:49:54;;;;;;;7.78;4.32;;;;;;;;;;5017605;28;20029;-63
2021/09/18 03:52:19;;;;;;;8.00;4.60;;;;;;;;;;5027574;28;20466;-63
2021/09/18 03:54:44;;;;;;;7.60;4.40;;;;;;;;;;5025635;28;20041;-62
2021/09/18 03:57:09;;;;;;;6.43;4.35;;;;;;;;;;5024777;28;20013;-62
2021/09/18 03:59:35;;;;;;;8.27;5.07;;;;;;;;;;5017492;28;20028;-62
2021/09/18 04:02:00;;;;;;;7.75;4.50;;;;;;;;;;5028275;28;20108;-64
2021/09/18 04:04:25;;;;;;;9.02;4.85;;;;;;;;;;5019443;28;20036;-63
2021/09/18 04:06:52;;;;;;;7.15;4.20;;;;;;;;;;5023720;28;20127;-63
2021/09/18 04:09:17;;;;;;;6.72;4.50;;;;;;;;;;5023279;28;20044;-63
2021/09/18 04:11:42;;;;;;;7.18;4.80;;;;;;;;;;5034483;28;20033;-64
2021/09/18 04:14:07;;;;;;;7.68;4.28;;;;;;;;;;5026913;28;20087;-64
2021/09/18 04:16:32;;;;;;;6.97;4.57;;;;;;;;;;5025587;28;20362;-63
2021/09/18 04:18:58;;;;;;;7.85;4.70;;;;;;;;;;5027868;28;20030;-64
2021/09/18 04:21:23;;;;;;;7.65;4.95;;;;;;;;;;5026601;28;20491;-63
2021/09/18 04:23:48;;;;;;;7.82;5.30;;;;;;;;;;5025114;28;20083;-64
2021/09/18 04:26:14;;;;;;;7.35;4.78;;;;;;;;;;5020385;28;20025;-63
2021/09/18 04:28:39;;;;;;;7.18;4.47;;;;;;;;;;5022523;28;20028;-63
2021/09/18 04:31:04;;;;;;;9.13;5.00;;;;;;;;;;5023890;28;20060;-63
2021/09/18 04:33:30;;;;;;;7.53;5.00;;;;;;;;;;5024025;28;20033;-63
2021/09/18 04:35:55;;;;;;;7.72;4.95;;;;;;;;;;5022212;28;20049;-64
2021/09/18 04:38:20;;;;;;;9.95;5.45;;;;;;;;;;5016653;28;20112;-63
2021/09/18 04:40:45;;;;;;;9.23;4.60;;;;;;;;;;5020965;28;20041;-63
2021/09/18 04:43:10;;;;;;;7.10;4.80;;;;;;;;;;5018718;28;20435;-62
2021/09/18 04:45:35;;;;;;;9.57;5.10;;;;;;;;;;5026554;28;20018;-63
2021/09/18 04:48:01;;;;;;;9.15;5.03;;;;;;;;;;5025537;28;20026;-64
2021/09/18 04:50:26;;;;;;;8.43;4.57;;;;;;;;;;5025604;28;20026;-63
2021/09/18 04:52:51;;;;;;;8.50;4.35;;;;;;;;;;5025803;28;20097;-64
2021/09/18 04:55:16;;;;;;;7.55;4.57;;;;;;;;;;5024788;28;20034;-63
2021/09/18 04:57:41;;;;;;;7.57;4.78;;;;;;;;;;5023035;28;20033;-64
2021/09/18 05:00:07;;;;;;;7.95;4.60;;;;;;;;;;5024305;28;20029;-64
2021/09/18 05:02:32;;;;;;;6.95;4.30;;;;;;;;;;5026464;28;20130;-64
2021/09/18 05:04:57;;;;;;;9.68;5.10;;;;;;;;;;5022479;28;20127;-63
2021/09/18 05:07:22;;;;;;;7.93;4.85;;;;;;;;;;5023662;28;20056;-64
2021/09/18 05:09:48;;;;;;;8.65;4.70;;;;;;;;;;5025579;28;20104;-64
2021/09/18 05:12:13;;;;;;;8.23;4.80;;;;;;;;;;5025638;28;20034;-63
2021/09/18 05:14:38;;;;;;;8.10;4.63;;;;;;;;;;5014885;28;20038;-64
2021/09/18 05:17:04;;;;;;;8.70;4.95;;;;;;;;;;5019845;28;20048;-63
2021/09/18 05:19:29;;;;;;;7.18;4.70;;;;;;;;;;5027425;28;20060;-63
2021/09/18 05:21:54;;;;;;;7.90;4.78;;;;;;;;;;5022768;28;20144;-63
2021/09/18 05:24:19;;;;;;;8.63;4.47;;;;;;;;;;5022725;28;20425;-63
2021/09/18 05:26:44;;;;;;;9.10;5.35;;;;;;;;;;5029010;28;20029;-63
2021/09/18 05:29:09;;;;;;;8.65;5.32;;;;;;;;;;5025175;28;20022;-64
2021/09/18 05:31:35;;;;;;;8.82;5.50;;;;;;;;;;5026148;28;20401;-64
2021/09/18 05:34:00;;;;;;;8.88;5.32;;;;;;;;;;5024583;28;20022;-64
2021/09/18 05:36:25;;;;;;;9.75;6.13;;;;;;;;;;5028294;28;20373;-65
2021/09/18 05:38:50;;;;;;;9.88;5.40;;;;;;;;;;5028068;28;20497;-64
2021/09/18 05:41:15;;;;;;;7.75;5.55;;;;;;;;;;5022175;28;20131;-64
2021/09/18 05:43:40;;;;;;;8.02;5.13;;;;;;;;;;5023483;28;20014;-64
2021/09/18 05:46:06;;;;;;;7.53;4.20;;;;;;;;;;5019606;28;20018;-64
2021/09/18 05:48:32;;;;;;;6.22;3.50;;;;;;;;;;5020233;28;20058;-64
2021/09/18 05:50:57;;;;;;;6.03;3.15;;;;;;;;;;5025904;28;20023;-64
2021/09/18 05:53:22;;;;;;;4.88;3.20;;;;;;;;;;5024972;28;20425;-64
2021/09/18 05:55:47;;;;;;;5.60;3.90;;;;;;;;;;5022286;28;21020;-64
2021/09/18 05:58:12;;;;;;;6.30;3.30;;;;;;;;;;5022697;28;20267;-64
2021/09/18 06:00:38;;;;;;;5.80;3.58;;;;;;;;;;5017813;28;20370;-64
2021/09/18 06:03:03;;;;;;;7.00;2.97;;;;;;;;;;5024372;28;20030;-64
2021/09/18 06:05:28;;;;;;;4.57;3.10;;;;;;;;;;5019712;28;20851;-63
2021/09/18 06:07:53;;;;;;;7.55;3.00;;;;;;;;;;5019474;28;20018;-64
2021/09/18 06:10:18;;;;;;;4.25;2.97;;;;;;;;;;5018109;28;20049;-63
2021/09/18 06:12:44;;;;;;;4.63;3.10;;;;;;;;;;5024319;28;20026;-66
2021/09/18 06:15:09;;;;;;;6.57;3.63;;;;;;;;;;5018687;28;20040;-64
2021/09/18 06:17:34;;;;;;;7.03;3.35;;;;;;;;;;5019249;28;20692;-63
2021/09/18 06:19:59;;;;;;;4.97;3.53;;;;;;;;;;5021309;28;20044;-63
2021/09/18 06:22:25;;;;;;;7.18;3.65;;;;;;;;;;5019089;28;20578;-64
2021/09/18 06:24:50;;;;;;;6.25;4.13;;;;;;;;;;5015850;28;20018;-64
2021/09/18 06:27:15;;;;;;;5.88;3.78;;;;;;;;;;5019070;28;20366;-64
2021/09/18 06:29:40;;;;;;;6.90;4.07;;;;;;;;;;5019580;28;20091;-65
2021/09/18 06:32:07;;;;;;;7.65;4.30;;;;;;;;;;5015844;28;20282;-65
2021/09/18 06:34:37;;;;;;;6.30;3.70;;;;;;;;;;5028911;28;20052;-64
2021/09/18 06:37:02;;;;;;;8.32;4.00;;;;;;;;;;5025556;28;20019;-63
2021/09/18 06:39:27;;;;;;;8.68;4.65;;;;;;;;;;5024277;28;20033;-65
2021/09/18 06:41:52;;;;;;;6.75;4.30;;;;;;;;;;5022279;28;20044;-64
2021/09/18 06:44:17;;;;;;;7.50;4.15;;;;;;;;;;5015443;28;20393;-64
2021/09/18 06:46:43;;;;;;;6.10;4.38;;;;;;;;;;5023528;28;20044;-64
2021/09/18 06:49:08;;;;;;;8.13;4.20;;;;;;;;;;5024249;28;20115;-64
2021/09/18 06:51:33;;;;;;;7.23;4.40;;;;;;;;;;5025920;28;20290;-63
2021/09/18 06:53:58;;;;;;;7.85;4.97;;;;;;;;;;5013913;28;20285;-64
2021/09/18 06:56:23;;;;;;;9.52;4.97;;;;;;;;;;5026672;28;20048;-63
2021/09/18 06:58:49;;;;;;;7.30;4.70;;;;;;;;;;5028453;28;20040;-64
2021/09/18 07:01:14;;;;;;;8.07;5.00;;;;;;;;;;5014514;28;20017;-63
2021/09/18 07:03:39;;;;;;;9.07;5.05;;;;;;;;;;5018745;28;20034;-64
2021/09/18 07:06:04;;;;;;;8.38;4.55;;;;;;;;;;5023563;28;20102;-63
2021/09/18 07:08:29;;;;;;;8.23;4.60;;;;;;;;;;5020347;28;20045;-63
2021/09/18 07:10:55;;;;;;;6.78;4.32;;;;;;;;;;5025423;28;20021;-63
2021/09/18 07:13:20;;;;;;;7.15;4.68;;;;;;;;;;5026772;28;20033;-64
2021/09/18 07:15:45;;;;;;;8.70;4.85;;;;;;;;;;5024668;28;20129;-63
2021/09/18 07:18:10;;;;;;;7.03;4.63;;;;;;;;;;5020912;28;20029;-63
2021/09/18 07:20:35;;;;;;;8.13;5.10;;;;;;;;;;5029428;28;20296;-64
2021/09/18 07:23:01;;;;;;;6.97;4.88;;;;;;;;;;5023004;28;20036;-63
2021/09/18 07:25:26;;;;;;;11.10;5.70;;;;;;;;;;5017370;28;20040;-64
2021/09/18 07:27:53;;;;;;;7.88;4.72;;;;;;;;;;5021632;28;20091;-64
2021/09/18 07:30:18;;;;;;;7.47;4.97;;;;;;;;;;5027326;28;20037;-64
2021/09/18 07:32:43;;;;;;;8.48;5.40;;;;;;;;;;5026795;28;20101;-64
2021/09/18 07:35:08;;;;;;;8.70;5.60;;;;;;;;;;5027923;28;20127;-63
2021/09/18 07:37:34;;;;;;;8.48;5.15;;;;;;;;;;5020092;28;20022;-64
2021/09/18 07:40:00;;;;;;;8.75;4.88;;;;;;;;;;5022025;28;20507;-65
2021/09/18 07:42:25;;;;;;;6.85;4.85;;;;;;;;;;5026829;28;20052;-60
2021/09/18 07:44:50;;;;;;;7.90;4.97;;;;;;;;;;5023107;28;20032;-62
2021/09/18 07:47:16;;;;;;;8.77;5.10;;;;;;;;;;5016651;28;20100;-62
2021/09/18 07:49:41;;;;;;;6.87;4.63;;;;;;;;;;5025107;28;20272;-62
2021/09/18 07:52:06;;;;;;;8.05;5.20;;;;;;;;;;5028187;28;20348;-63
2021/09/18 07:54:32;;;;;;;6.47;4.10;;;;;;;;;;5024490;28;20583;-62
2021/09/18 07:56:57;;;;;;;9.75;4.93;;;;;;;;;;5024258;28;20377;-61
2021/09/18 07:59:22;;;;;;;6.72;4.53;;;;;;;;;;5028205;28;20025;-62
2021/09/18 08:01:48;;;;;;;6.80;4.60;;;;;;;;;;5024838;28;20040;-63
2021/09/18 08:04:13;;;;;;;7.65;4.85;;;;;;;;;;5028032;28;20866;-62
2021/09/18 08:06:38;;;;;;;8.45;4.55;;;;;;;;;;5023786;28;20025;-62
2021/09/18 08:09:04;;;;;;;6.22;4.47;;;;;;;;;;5020899;28;20112;-62
2021/09/18 08:11:30;;;;;;;6.10;4.28;;;;;;;;;;5025130;28;20022;-62
2021/09/18 08:13:57;;;;;;;7.78;4.80;;;;;;;;;;5024800;28;20026;-62
2021/09/18 08:16:22;;;;;;;9.45;4.82;;;;;;;;;;5025331;28;20025;-61
2021/09/18 08:18:47;;;;;;;10.02;4.50;;;;;;;;;;5017930;28;20346;-61
2021/09/18 08:21:13;;;;;;;6.85;4.85;;;;;;;;;;5026385;28;20029;-61
2021/09/18 08:23:38;;;;;;;5.82;4.05;;;;;;;;;;5026108;28;20112;-60
2021/09/18 08:26:04;;;;;;;7.03;4.90;;;;;;;;;;5014156;28;20123;-61
2021/09/18 08:28:29;;;;;;;6.88;4.75;;;;;;;;;;5025912;28;20028;-62
2021/09/18 08:30:54;;;;;;;7.95;4.63;;;;;;;;;;5027862;28;20562;-61
2021/09/18 08:33:19;;;;;;;6.65;4.20;;;;;;;;;;5028429;28;20028;-62
2021/09/18 08:35:44;;;;;;;7.70;5.20;;;;;;;;;;5028061;28;20173;-61
2021/09/18 08:38:10;;;;;;;6.45;4.18;;;;;;;;;;5028086;28;20675;-61
2021/09/18 08:40:37;;;;;;;7.38;4.40;;;;;;;;;;5028024;28;20291;-62
2021/09/18 08:43:03;;;;;;;6.90;4.68;;;;;;;;;;5028374;28;20097;-61
2021/09/18 08:45:28;;;;;;;5.97;3.92;;;;;;;;;;5028168;28;20180;-62
2021/09/18 08:47:54;;;;;;;8.10;4.85;;;;;;;;;;5026915;28;20083;-61
2021/09/18 08:50:20;;;;;;;6.53;4.03;;;;;;;;;;5028139;28;20073;-61
2021/09/18 08:52:47;;;;;;;8.20;4.43;;;;;;;;;;5028688;28;20026;-62
2021/09/18 08:55:13;;;;;;;7.40;4.40;;;;;;;;;;5029926;28;20555;-62
2021/09/18 08:57:39;;;;;;;6.20;4.18;;;;;;;;;;5032552;28;20030;-61
2021/09/18 09:00:06;;;;;;;8.85;5.22;;;;;;;;;;5032892;28;20025;-61
2021/09/18 09:02:33;;;;;;;7.57;4.43;;;;;;;;;;5031677;28;20503;-61
2021/09/18 09:05:06;;;;;;;8.02;4.38;;;;;;;;;;5032342;28;20030;-61
2021/09/18 09:07:31;;;;;;;6.57;4.13;;;;;;;;;;5032125;28;20025;-62
2021/09/18 09:10:02;;;;;;;7.07;4.47;;;;;;;;;;5032182;28;20017;-61
2021/09/18 09:12:31;;;;;;;6.50;4.35;;;;;;;;;;5031782;28;20628;-62
2021/09/18 09:14:57;;;;;;;5.97;3.92;;;;;;;;;;5031876;28;20091;-61
2021/09/18 09:17:27;;;;;;;6.53;4.25;;;;;;;;;;5046767;28;20060;-61
2021/09/18 09:19:52;;;;;;;5.03;3.85;;;;;;;;;;5031562;28;20021;-61
2021/09/18 09:22:36;;;;;;;5.07;3.10;;;;;;;;;;5032107;28;20131;-61
2021/09/18 09:25:02;;;;;;;6.00;2.42;;;;;;;;;;5032003;28;20028;-60
2021/09/18 09:27:27;;;;;;;4.53;2.80;;;;;;;;;;5031327;28;20400;-61
2021/09/18 09:29:54;;;;;;;5.13;2.70;;;;;;;;;;5031713;28;20029;-61
2021/09/18 09:32:25;;;;;;;6.88;3.35;;;;;;;;;;5031289;28;20108;-61
2021/09/18 09:34:51;;;;;;;5.07;2.92;;;;;;;;;;5046508;28;20030;-61
2021/09/18 09:37:17;;;;;;;5.47;2.97;;;;;;;;;;5031450;28;20032;-60
2021/09/18 09:39:48;;;;;;;4.72;2.90;;;;;;;;;;5031289;28;20030;-61
2021/09/18 09:42:13;;;;;;;5.20;2.97;;;;;;;;;;5031307;28;20320;-60
2021/09/18 09:44:39;;;;;;;4.57;2.30;;;;;;;;;;5031756;28;20432;-62
2021/09/18 09:47:05;;;;;;;3.33;2.30;;;;;;;;;;5047033;28;20256;-62
2021/09/18 09:49:44;;;;;;;3.30;2.00;;;;;;;;;;5031451;28;20261;-61
2021/09/18 09:52:16;;;;;;;3.70;2.08;;;;;;;;;;5030941;28;20025;-61
2021/09/18 09:54:41;;;;;;;3.25;2.20;;;;;;;;;;5031169;28;20052;-61
2021/09/18 09:57:08;;;;;;;3.33;2.03;;;;;;;;;;5031273;28;20550;-61
2021/09/18 09:59:33;;;;;;;4.45;2.60;;;;;;;;;;5031483;28;20612;-62
2021/09/18 10:01:58;;;;;;;3.47;2.30;;;;;;;;;;5030942;28;20113;-61
2021/09/18 10:04:24;;;;;;;3.90;2.50;;;;;;;;;;5030720;28;20052;-61
2021/09/18 10:06:49;;;;;;;3.38;2.20;;;;;;;;;;5030711;28;20032;-61
2021/09/18 10:09:15;;;;;;;5.28;2.67;;;;;;;;;;5030833;28;20109;-63
2021/09/18 10:11:41;;;;;;;5.97;2.67;;;;;;;;;;5030877;28;20018;-62
2021/09/18 10:14:06;;;;;;;4.00;2.70;;;;;;;;;;5030440;28;20036;-62
2021/09/18 10:16:32;;;;;;;3.40;2.25;;;;;;;;;;5029750;28;20040;-61
2021/09/18 10:18:58;;;;;;;4.45;2.17;;;;;;;;;;5026138;28;20568;-62
2021/09/18 10:24:09;;;;;;;4.25;2.80;;;;;;;;;;5024624;28;20032;-61
2021/09/18 10:26:34;;;;;;;4.03;2.83;;;;;;;;;;5030409;28;20013;-61
2021/09/18 10:29:02;;;;;;;4.78;3.30;;;;;;;;;;5030886;28;20449;-60
2021/09/18 10:31:28;;;;;;;4.50;2.80;;;;;;;;;;5030644;28;20064;-59
2021/09/18 10:33:53;;;;;;;3.45;2.20;;;;;;;;;;5030513;28;20056;-61
2021/09/18 10:36:40;;;;;;;3.15;1.92;;;;;;;;;;5030250;28;20037;-60
2021/09/18 10:39:12;;;;;;;3.35;2.28;;;;;;;;;;5029850;28;20025;-60
2021/09/18 10:41:41;;;;;;;3.63;1.80;;;;;;;;;;5029518;28;20076;-61
2021/09/18 10:44:06;;;;;;;2.33;1.65;;;;;;;;;;5022872;28;20018;-62
2021/09/18 10:46:46;;;;;;;3.30;1.88;;;;;;;;;;5029875;28;20032;-61
2021/09/18 10:49:29;;;;;;;2.55;1.60;;;;;;;;;;5030055;28;20064;-61
2021/09/18 10:51:55;;;;;;;1.92;1.55;;;;;;;;;;5024415;28;20034;-61
2021/09/18 10:54:20;;;;;;;2.72;1.48;;;;;;;;;;5029148;28;20040;-60
2021/09/18 10:56:55;;;;;;;3.55;2.10;;;;;;;;;;5030095;28;20100;-61
2021/09/18 10:59:40;;;;;;;4.68;1.92;;;;;;;;;;5024407;28;20079;-60
2021/09/18 11:02:24;;;;;;;2.55;1.60;;;;;;;;;;5028845;28;20548;-60
2021/09/18 11:04:50;;;;;;;2.10;0.95;;;;;;;;;;5029455;28;20033;-60
2021/09/18 11:07:33;;;;;;;1.80;1.20;;;;;;;;;;5029696;28;20031;-61
2021/09/18 11:09:59;;;;;;;3.25;2.13;;;;;;;;;;5024883;28;20110;-60
2021/09/18 11:12:24;;;;;;;4.78;2.47;;;;;;;;;;5029605;28;20359;-60
2021/09/18 11:15:03;;;;;;;2.27;1.53;;;;;;;;;;5029405;28;20025;-60
2021/09/18 11:17:32;;;;;;;2.75;1.50;;;;;;;;;;5023534;28;20268;-60
2021/09/18 11:20:10;;;;;;;2.35;1.50;;;;;;;;;;5028391;28;20564;-60
2021/09/18 11:22:36;;;;;;;2.97;2.10;;;;;;;;;;5027267;28;20055;-60
2021/09/18 11:25:19;;;;;;;4.28;2.95;;;;;;;;;;5022473;28;20029;-61
2021/09/18 11:27:58;;;;;;;3.58;1.92;;;;;;;;;;5027704;28;20040;-60
2021/09/18 11:30:36;;;;;;;2.22;1.73;;;;;;;;;;5028730;28;20354;-61
2021/09/18 11:33:02;;;;;;;3.05;1.80;;;;;;;;;;5023995;28;20025;-60
2021/09/18 11:35:27;;;;;;;3.17;1.77;;;;;;;;;;5028121;28;20358;-60
2021/09/18 11:37:52;;;;;;;3.13;1.98;;;;;;;;;;5029060;28;20060;-61
2021/09/18 11:40:17;;;;;;;2.70;1.77;;;;;;;;;;5029402;28;20029;-61
2021/09/18 11:42:44;;;;;;;2.60;1.80;;;;;;;;;;5022916;28;20295;-60
2021/09/18 11:45:11;;;;;;;3.15;2.05;;;;;;;;;;5023172;28;20283;-61
2021/09/18 11:47:39;;;;;;;4.97;2.20;;;;;;;;;;5028770;28;20021;-61
2021/09/18 11:50:18;;;;;;;2.83;2.00;;;;;;;;;;5027846;28;20018;-61
2021/09/18 11:52:44;;;;;;;3.50;1.70;;;;;;;;;;5024250;28;20021;-61
2021/09/18 11:55:25;;;;;;;2.63;1.52;;;;;;;;;;5013110;28;20493;-61
2021/09/18 11:58:04;;;;;;;2.60;1.30;;;;;;;;;;5024344;28;20017;-61
2021/09/18 12:00:29;;;;;;;2.78;1.50;;;;;;;;;;5021777;28;20503;-62
2021/09/18 12:02:55;;;;;;;2.30;1.50;;;;;;;;;;5022838;28;20032;-60
2021/09/18 12:05:20;;;;;;;2.90;1.50;;;;;;;;;;5022499;28;20037;-59
2021/09/18 12:07:46;;;;;;;3.33;1.40;;;;;;;;;;5024610;28;20112;-61
2021/09/18 12:10:15;;;;;;;3.15;1.80;;;;;;;;;;5024481;28;20480;-58
2021/09/18 12:12:40;;;;;;;4.10;1.90;;;;;;;;;;5023400;28;20108;-60
2021/09/18 12:15:05;;;;;;;2.78;1.85;;;;;;;;;;5021273;28;20116;-60
2021/09/18 12:17:36;;;;;;;2.45;1.83;;;;;;;;;;5016863;28;20079;-60
2021/09/18 12:20:02;;;;;;;2.83;1.88;;;;;;;;;;5022993;28;20030;-59
2021/09/18 12:22:27;;;;;;;2.45;1.63;;;;;;;;;;5027181;28;20035;-59
2021/09/18 12:24:53;;;;;;;2.53;1.95;;;;;;;;;;5023841;28;20615;-60
2021/09/18 12:27:22;;;;;;;2.53;1.92;;;;;;;;;;5020617;28;20087;-60
2021/09/18 12:29:54;;;;;;;2.90;2.00;;;;;;;;;;5025357;28;20339;-60
2021/09/18 12:32:19;;;;;;;3.35;2.50;;;;;;;;;;5028398;28;20087;-60
2021/09/18 12:34:44;;;;;;;2.10;1.60;;;;;;;;;;5018268;28;20037;-60
2021/09/18 12:37:10;;;;;;;2.47;1.70;;;;;;;;;;5021593;28;20044;-60
2021/09/18 12:39:35;;;;;;;3.00;2.40;;;;;;;;;;5020062;28;20279;-59
2021/09/18 12:42:04;;;;;;;4.63;1.63;;;;;;;;;;5020178;28;20538;-60
2021/09/18 12:44:38;;;;;;;3.13;2.05;;;;;;;;;;5022049;28;20034;-60
2021/09/18 12:47:03;;;;;;;2.80;1.95;;;;;;;;;;5021347;28;20148;-61
2021/09/18 12:49:37;;;;;;;2.45;1.40;;;;;;;;;;5016872;28;20030;-61
2021/09/18 12:52:04;;;;;;;2.50;1.90;;;;;;;;;;5022074;28;20022;-60
2021/09/18 12:54:29;;;;;;;3.88;2.25;;;;;;;;;;5019899;28;20083;-60
2021/09/18 12:57:04;;;;;;;3.73;2.00;;;;;;;;;;5020370;28;20021;-61
2021/09/18 12:59:38;;;;;;;3.78;1.80;;;;;;;;;;5019554;28;20284;-60
2021/09/18 13:02:06;;;;;;;2.88;1.60;;;;;;;;;;5023543;28;20037;-63
2021/09/18 13:04:31;;;;;;;3.22;1.92;;;;;;;;;;5024865;28;20121;-61
2021/09/18 13:06:58;;;;;;;4.53;1.90;;;;;;;;;;5019133;28;20109;-63
2021/09/18 13:09:24;;;;;;;3.78;2.10;;;;;;;;;;5028396;28;20046;-62
2021/09/18 13:11:50;;;;;;;4.28;1.90;;;;;;;;;;5020648;28;20377;-59
2021/09/18 13:14:16;;;;;;;2.55;1.80;;;;;;;;;;5023580;28;20018;-60
2021/09/18 13:16:54;;;;;;;4.28;1.90;;;;;;;;;;5019813;28;20441;-59
2021/09/18 13:19:19;;;;;;;2.70;1.90;;;;;;;;;;5018578;28;20064;-61
2021/09/18 13:21:44;;;;;;;2.95;1.80;;;;;;;;;;5026786;28;20450;-61
2021/09/18 13:24:09;;;;;;;4.53;2.13;;;;;;;;;;5023804;28;20024;-63
2021/09/18 13:26:34;;;;;;;2.75;1.60;;;;;;;;;;5027860;28;20322;-62
2021/09/18 13:29:02;;;;;;;5.73;2.60;;;;;;;;;;5016646;28;20040;-65
2021/09/18 13:31:27;;;;;;;3.00;1.90;;;;;;;;;;5018233;28;20283;-62
2021/09/18 13:33:52;;;;;;;5.30;1.65;;;;;;;;;;5025956;28;20025;-63
2021/09/18 13:36:18;;;;;;;5.27;1.90;;;;;;;;;;5026717;28;20045;-63
2021/09/18 13:38:43;;;;;;;2.75;1.90;;;;;;;;;;5022730;28;20365;-62
2021/09/18 13:41:08;;;;;;;4.43;2.30;;;;;;;;;;5025240;28;20057;-62
2021/09/18 13:43:33;;;;;;;5.70;2.50;;;;;;;;;;5023033;28;20347;-62
2021/09/18 13:45:58;;;;;;;4.00;2.13;;;;;;;;;;5025383;28;20291;-60
2021/09/18 13:48:24;;;;;;;3.65;2.25;;;;;;;;;;5031299;28;20029;-60
2021/09/18 13:50:49;;;;;;;2.97;1.63;;;;;;;;;;5027193;28;20124;-62
2021/09/18 13:53:14;;;;;;;4.18;2.40;;;;;;;;;;5030847;28;20276;-60
2021/09/18 13:55:39;;;;;;;4.10;2.55;;;;;;;;;;5021623;28;20045;-61
2021/09/18 13:58:05;;;;;;;3.08;1.65;;;;;;;;;;5031195;28;20032;-60
2021/09/18 14:00:30;;;;;;;3.20;1.75;;;;;;;;;;5026427;28;20096;-60
2021/09/18 14:02:56;;;;;;;4.30;1.65;;;;;;;;;;5026762;28;20393;-61
2021/09/18 14:05:21;;;;;;;5.88;2.05;;;;;;;;;;5029845;28;20021;-60
2021/09/18 14:07:46;;;;;;;2.10;1.35;;;;;;;;;;5030420;28;20079;-63
2021/09/18 14:10:12;;;;;;;1.98;1.30;;;;;;;;;;5020550;28;20101;-60
2021/09/18 14:12:37;;;;;;;3.78;2.30;;;;;;;;;;5021024;28;20031;-62
2021/09/18 14:15:02;;;;;;;2.78;1.52;;;;;;;;;;5024999;28;20128;-62
2021/09/18 14:17:28;;;;;;;1.55;1.00;;;;;;;;;;5045705;28;20029;-60
2021/09/18 14:19:53;;;;;;;1.93;0.90;;;;;;;;;;5027760;28;20186;-63
2021/09/18 14:22:18;;;;;;;1.40;0.87;;;;;;;;;;5021900;28;20033;-60
2021/09/18 14:24:43;;;;;;;1.47;0.97;;;;;;;;;;5025829;28;20025;-62
2021/09/18 14:27:08;;;;;;;2.25;1.48;;;;;;;;;;5025567;28;20025;-61
2021/09/18 14:29:34;;;;;;;3.45;1.42;;;;;;;;;;5024909;28;20536;-62
2021/09/18 14:32:01;;;;;;;2.20;1.50;;;;;;;;;;5020768;28;20100;-62
2021/09/18 14:34:26;;;;;;;2.33;1.33;;;;;;;;;;5026175;28;20137;-63
2021/09/18 14:36:51;;;;;;;3.72;2.60;;;;;;;;;;5025248;28;20053;-61
2021/09/18 14:39:16;;;;;;;8.43;4.73;;;;;;;;;;5019255;28;20045;-63
2021/09/18 14:41:42;;;;;;;3.53;2.10;;;;;;;;;;5013643;28;20735;-61